Terminal Aerodrome Forecast
Issued by NWS Nashville, TN

Home | Current Version | Previous Version | Text Only | Print | Product List | Glossary On
Versions: 1 2 3 4 5 6 7 8 9 10 11 12 13 14 15 16 17 18
000
FTUS44 KOHX 221100 RRA
TAFCSV
TAF
KCSV 221141Z 2212/2312 14003KT P6SM OVC010
     FM221600 15008KT P6SM OVC015
     FM230000 16010G18KT 4SM -RA BR OVC007
     FM230600 17010KT 4SM BR OVC007=

USA.gov is the U.S. government's official web portal to all federal, state and local government web resources and services.